sensor_id;sensor_type;location;lat;lon;timestamp;P1;durP1;ratioP1;P2;durP2;ratioP2
4323;SDS011;2175;51.018;6.994;2023-04-24T00:00:10;1.90;;;1.37;;
4323;SDS011;2175;51.018;6.994;2023-04-24T00:02:45;3.07;;;1.40;;
4323;SDS011;2175;51.018;6.994;2023-04-24T00:05:24;1.60;;;1.20;;
4323;SDS011;2175;51.018;6.994;2023-04-24T00:07:50;2.87;;;1.30;;
4323;SDS011;2175;51.018;6.994;2023-04-24T00:10:28;6.20;;;1.43;;
4323;SDS011;2175;51.018;6.994;2023-04-24T00:12:54;6.60;;;1.33;;
4323;SDS011;2175;51.018;6.994;2023-04-24T00:15:29;2.50;;;1.30;;
4323;SDS011;2175;51.018;6.994;2023-04-24T00:18:05;4.00;;;1.40;;
4323;SDS011;2175;51.018;6.994;2023-04-24T00:20:38;3.57;;;1.37;;
4323;SDS011;2175;51.018;6.994;2023-04-24T00:26:04;3.23;;;1.57;;
4323;SDS011;2175;51.018;6.994;2023-04-24T00:28:47;2.30;;;1.47;;
4323;SDS011;2175;51.018;6.994;2023-04-24T00:31:15;2.87;;;1.70;;
4323;SDS011;2175;51.018;6.994;2023-04-24T00:33:44;2.00;;;1.60;;
4323;SDS011;2175;51.018;6.994;2023-04-24T00:36:09;2.43;;;1.60;;
4323;SDS011;2175;51.018;6.994;2023-04-24T00:38:48;1.80;;;1.40;;
4323;SDS011;2175;51.018;6.994;2023-04-24T00:41:16;3.87;;;1.90;;
4323;SDS011;2175;51.018;6.994;2023-04-24T00:43:46;2.13;;;1.80;;
4323;SDS011;2175;51.018;6.994;2023-04-24T00:46:12;1.90;;;1.40;;
4323;SDS011;2175;51.018;6.994;2023-04-24T00:48:38;8.00;;;1.87;;
4323;SDS011;2175;51.018;6.994;2023-04-24T00:51:06;4.13;;;2.33;;
4323;SDS011;2175;51.018;6.994;2023-04-24T00:53:35;2.40;;;1.50;;
4323;SDS011;2175;51.018;6.994;2023-04-24T00:56:04;3.13;;;1.67;;
4323;SDS011;2175;51.018;6.994;2023-04-24T00:58:33;3.23;;;1.60;;
4323;SDS011;2175;51.018;6.994;2023-04-24T01:01:00;3.07;;;1.80;;
4323;SDS011;2175;51.018;6.994;2023-04-24T01:03:30;2.93;;;1.60;;
4323;SDS011;2175;51.018;6.994;2023-04-24T01:05:59;5.60;;;1.80;;
4323;SDS011;2175;51.018;6.994;2023-04-24T01:08:28;2.93;;;1.70;;
4323;SDS011;2175;51.018;6.994;2023-04-24T01:11:06;3.50;;;1.80;;
4323;SDS011;2175;51.018;6.994;2023-04-24T01:13:38;3.30;;;1.70;;
4323;SDS011;2175;51.018;6.994;2023-04-24T01:16:05;3.97;;;1.97;;
4323;SDS011;2175;51.018;6.994;2023-04-24T01:18:30;2.87;;;1.80;;
4323;SDS011;2175;51.018;6.994;2023-04-24T01:21:00;3.53;;;1.97;;
4323;SDS011;2175;51.018;6.994;2023-04-24T01:23:30;4.03;;;1.60;;
4323;SDS011;2175;51.018;6.994;2023-04-24T01:25:55;5.23;;;2.10;;
4323;SDS011;2175;51.018;6.994;2023-04-24T01:28:21;3.43;;;2.00;;
4323;SDS011;2175;51.018;6.994;2023-04-24T01:30:47;3.40;;;2.07;;
4323;SDS011;2175;51.018;6.994;2023-04-24T01:33:13;3.20;;;2.10;;
4323;SDS011;2175;51.018;6.994;2023-04-24T01:35:39;5.97;;;2.40;;
4323;SDS011;2175;51.018;6.994;2023-04-24T01:38:05;6.70;;;2.50;;
4323;SDS011;2175;51.018;6.994;2023-04-24T01:40:31;6.33;;;3.00;;
4323;SDS011;2175;51.018;6.994;2023-04-24T01:42:57;3.87;;;2.80;;
4323;SDS011;2175;51.018;6.994;2023-04-24T01:45:23;6.50;;;3.30;;
4323;SDS011;2175;51.018;6.994;2023-04-24T01:47:49;5.63;;;2.77;;
4323;SDS011;2175;51.018;6.994;2023-04-24T01:50:15;4.70;;;3.43;;
4323;SDS011;2175;51.018;6.994;2023-04-24T01:52:41;4.40;;;3.20;;
4323;SDS011;2175;51.018;6.994;2023-04-24T01:55:06;4.57;;;3.20;;
4323;SDS011;2175;51.018;6.994;2023-04-24T01:57:32;8.33;;;4.23;;
4323;SDS011;2175;51.018;6.994;2023-04-24T01:59:58;8.43;;;4.10;;
4323;SDS011;2175;51.018;6.994;2023-04-24T02:02:24;6.50;;;4.03;;
4323;SDS011;2175;51.018;6.994;2023-04-24T02:04:52;4.87;;;3.93;;
4323;SDS011;2175;51.018;6.994;2023-04-24T02:07:18;8.40;;;4.83;;
4323;SDS011;2175;51.018;6.994;2023-04-24T02:09:44;6.40;;;4.23;;
4323;SDS011;2175;51.018;6.994;2023-04-24T02:12:10;12.80;;;5.77;;
4323;SDS011;2175;51.018;6.994;2023-04-24T02:14:35;10.87;;;5.60;;
4323;SDS011;2175;51.018;6.994;2023-04-24T02:17:01;7.73;;;5.60;;
4323;SDS011;2175;51.018;6.994;2023-04-24T02:19:26;9.37;;;5.10;;
4323;SDS011;2175;51.018;6.994;2023-04-24T02:21:52;11.17;;;5.97;;
4323;SDS011;2175;51.018;6.994;2023-04-24T02:24:18;10.00;;;6.00;;
4323;SDS011;2175;51.018;6.994;2023-04-24T02:26:43;12.60;;;6.83;;
4323;SDS011;2175;51.018;6.994;2023-04-24T02:29:09;8.20;;;5.57;;
4323;SDS011;2175;51.018;6.994;2023-04-24T02:31:35;12.43;;;7.50;;
4323;SDS011;2175;51.018;6.994;2023-04-24T02:34:01;12.93;;;7.63;;
4323;SDS011;2175;51.018;6.994;2023-04-24T02:36:26;15.47;;;7.70;;
4323;SDS011;2175;51.018;6.994;2023-04-24T02:38:53;11.90;;;6.97;;
4323;SDS011;2175;51.018;6.994;2023-04-24T02:41:19;11.83;;;6.77;;
4323;SDS011;2175;51.018;6.994;2023-04-24T02:43:45;10.77;;;7.10;;
4323;SDS011;2175;51.018;6.994;2023-04-24T02:46:13;9.70;;;7.47;;
4323;SDS011;2175;51.018;6.994;2023-04-24T02:48:39;8.83;;;7.03;;
4323;SDS011;2175;51.018;6.994;2023-04-24T02:51:05;10.93;;;6.80;;
4323;SDS011;2175;51.018;6.994;2023-04-24T02:53:31;8.43;;;6.20;;
4323;SDS011;2175;51.018;6.994;2023-04-24T02:55:57;14.27;;;7.00;;
4323;SDS011;2175;51.018;6.994;2023-04-24T02:58:22;10.10;;;6.60;;
4323;SDS011;2175;51.018;6.994;2023-04-24T03:00:48;8.90;;;6.20;;
4323;SDS011;2175;51.018;6.994;2023-04-24T03:03:16;7.33;;;5.83;;
4323;SDS011;2175;51.018;6.994;2023-04-24T03:05:47;9.63;;;6.20;;
4323;SDS011;2175;51.018;6.994;2023-04-24T03:08:13;10.50;;;6.53;;
4323;SDS011;2175;51.018;6.994;2023-04-24T03:10:39;12.20;;;7.67;;
4323;SDS011;2175;51.018;6.994;2023-04-24T03:13:05;11.70;;;7.10;;
4323;SDS011;2175;51.018;6.994;2023-04-24T03:15:43;11.33;;;6.70;;
4323;SDS011;2175;51.018;6.994;2023-04-24T03:18:22;9.13;;;7.57;;
4323;SDS011;2175;51.018;6.994;2023-04-24T03:21:18;10.40;;;6.93;;
4323;SDS011;2175;51.018;6.994;2023-04-24T03:24:11;12.10;;;7.50;;
4323;SDS011;2175;51.018;6.994;2023-04-24T03:26:45;11.77;;;7.50;;
4323;SDS011;2175;51.018;6.994;2023-04-24T03:29:11;17.57;;;7.23;;
4323;SDS011;2175;51.018;6.994;2023-04-24T03:31:36;14.77;;;8.67;;
4323;SDS011;2175;51.018;6.994;2023-04-24T03:34:02;15.53;;;8.63;;
4323;SDS011;2175;51.018;6.994;2023-04-24T03:36:27;12.17;;;8.13;;
4323;SDS011;2175;51.018;6.994;2023-04-24T03:38:53;11.97;;;8.57;;
4323;SDS011;2175;51.018;6.994;2023-04-24T03:41:23;11.20;;;7.17;;
4323;SDS011;2175;51.018;6.994;2023-04-24T03:43:54;10.53;;;7.70;;
4323;SDS011;2175;51.018;6.994;2023-04-24T03:46:25;10.50;;;7.70;;
4323;SDS011;2175;51.018;6.994;2023-04-24T03:48:59;12.10;;;8.37;;
4323;SDS011;2175;51.018;6.994;2023-04-24T03:51:27;12.57;;;8.80;;
4323;SDS011;2175;51.018;6.994;2023-04-24T03:53:56;9.97;;;8.37;;
4323;SDS011;2175;51.018;6.994;2023-04-24T03:56:21;13.67;;;8.90;;
4323;SDS011;2175;51.018;6.994;2023-04-24T03:58:47;14.93;;;9.37;;
4323;SDS011;2175;51.018;6.994;2023-04-24T04:01:12;12.03;;;8.30;;
4323;SDS011;2175;51.018;6.994;2023-04-24T04:03:38;12.17;;;8.63;;
4323;SDS011;2175;51.018;6.994;2023-04-24T04:06:03;10.57;;;7.97;;
4323;SDS011;2175;51.018;6.994;2023-04-24T04:08:29;11.80;;;8.07;;
4323;SDS011;2175;51.018;6.994;2023-04-24T04:10:55;9.33;;;7.30;;
4323;SDS011;2175;51.018;6.994;2023-04-24T04:13:20;14.63;;;8.00;;
4323;SDS011;2175;51.018;6.994;2023-04-24T04:15:56;12.27;;;8.10;;
4323;SDS011;2175;51.018;6.994;2023-04-24T04:18:21;13.40;;;8.60;;
4323;SDS011;2175;51.018;6.994;2023-04-24T04:20:47;10.80;;;8.60;;
4323;SDS011;2175;51.018;6.994;2023-04-24T04:23:12;10.73;;;8.20;;
4323;SDS011;2175;51.018;6.994;2023-04-24T04:25:38;9.50;;;7.63;;
4323;SDS011;2175;51.018;6.994;2023-04-24T04:28:04;11.77;;;8.30;;
4323;SDS011;2175;51.018;6.994;2023-04-24T04:30:30;13.83;;;7.67;;
4323;SDS011;2175;51.018;6.994;2023-04-24T04:32:57;13.00;;;8.00;;
4323;SDS011;2175;51.018;6.994;2023-04-24T04:35:23;12.37;;;8.30;;
4323;SDS011;2175;51.018;6.994;2023-04-24T04:37:49;12.03;;;7.10;;
4323;SDS011;2175;51.018;6.994;2023-04-24T04:40:16;14.60;;;8.07;;
4323;SDS011;2175;51.018;6.994;2023-04-24T04:42:42;11.10;;;7.53;;
4323;SDS011;2175;51.018;6.994;2023-04-24T04:45:13;15.67;;;8.20;;
4323;SDS011;2175;51.018;6.994;2023-04-24T04:47:41;11.27;;;8.00;;
4323;SDS011;2175;51.018;6.994;2023-04-24T04:50:07;12.83;;;7.10;;
4323;SDS011;2175;51.018;6.994;2023-04-24T04:52:33;11.43;;;6.90;;
4323;SDS011;2175;51.018;6.994;2023-04-24T04:54:58;10.07;;;7.87;;
4323;SDS011;2175;51.018;6.994;2023-04-24T04:57:24;14.20;;;6.87;;
4323;SDS011;2175;51.018;6.994;2023-04-24T04:59:50;11.57;;;7.90;;
4323;SDS011;2175;51.018;6.994;2023-04-24T05:02:16;12.50;;;7.33;;
4323;SDS011;2175;51.018;6.994;2023-04-24T05:04:42;11.67;;;6.80;;
4323;SDS011;2175;51.018;6.994;2023-04-24T05:07:07;9.63;;;6.87;;
4323;SDS011;2175;51.018;6.994;2023-04-24T05:09:33;12.90;;;6.63;;
4323;SDS011;2175;51.018;6.994;2023-04-24T05:11:59;9.00;;;6.40;;
4323;SDS011;2175;51.018;6.994;2023-04-24T05:16:55;9.50;;;7.00;;
4323;SDS011;2175;51.018;6.994;2023-04-24T05:19:21;10.33;;;6.33;;
4323;SDS011;2175;51.018;6.994;2023-04-24T05:21:47;9.20;;;6.47;;
4323;SDS011;2175;51.018;6.994;2023-04-24T05:24:13;14.63;;;6.40;;
4323;SDS011;2175;51.018;6.994;2023-04-24T05:26:38;8.47;;;5.80;;
4323;SDS011;2175;51.018;6.994;2023-04-24T05:29:04;10.33;;;7.23;;
4323;SDS011;2175;51.018;6.994;2023-04-24T05:31:30;11.50;;;6.27;;
4323;SDS011;2175;51.018;6.994;2023-04-24T05:33:55;11.00;;;6.07;;
4323;SDS011;2175;51.018;6.994;2023-04-24T05:36:21;10.77;;;7.50;;
4323;SDS011;2175;51.018;6.994;2023-04-24T05:38:46;8.30;;;6.37;;
4323;SDS011;2175;51.018;6.994;2023-04-24T05:41:15;9.20;;;7.07;;
4323;SDS011;2175;51.018;6.994;2023-04-24T05:43:40;11.53;;;6.63;;
4323;SDS011;2175;51.018;6.994;2023-04-24T05:46:06;13.63;;;6.87;;
4323;SDS011;2175;51.018;6.994;2023-04-24T05:48:31;10.30;;;6.70;;
4323;SDS011;2175;51.018;6.994;2023-04-24T05:51:00;14.13;;;7.67;;
4323;SDS011;2175;51.018;6.994;2023-04-24T05:53:26;11.77;;;7.23;;
4323;SDS011;2175;51.018;6.994;2023-04-24T05:55:51;16.07;;;7.23;;
4323;SDS011;2175;51.018;6.994;2023-04-24T05:58:17;8.77;;;7.13;;
4323;SDS011;2175;51.018;6.994;2023-04-24T06:00:46;9.20;;;7.17;;
4323;SDS011;2175;51.018;6.994;2023-04-24T06:03:14;9.97;;;6.70;;
4323;SDS011;2175;51.018;6.994;2023-04-24T06:05:40;9.20;;;6.90;;
4323;SDS011;2175;51.018;6.994;2023-04-24T06:08:09;9.80;;;7.30;;
4323;SDS011;2175;51.018;6.994;2023-04-24T06:10:35;9.83;;;7.20;;
4323;SDS011;2175;51.018;6.994;2023-04-24T06:13:00;12.63;;;6.60;;
4323;SDS011;2175;51.018;6.994;2023-04-24T06:15:29;10.33;;;6.67;;
4323;SDS011;2175;51.018;6.994;2023-04-24T06:17:56;9.77;;;6.47;;
4323;SDS011;2175;51.018;6.994;2023-04-24T06:20:22;7.33;;;6.03;;
4323;SDS011;2175;51.018;6.994;2023-04-24T06:22:49;12.60;;;6.93;;
4323;SDS011;2175;51.018;6.994;2023-04-24T06:25:14;8.93;;;6.70;;
4323;SDS011;2175;51.018;6.994;2023-04-24T06:27:40;9.20;;;5.87;;
4323;SDS011;2175;51.018;6.994;2023-04-24T06:30:06;8.70;;;5.50;;
4323;SDS011;2175;51.018;6.994;2023-04-24T06:32:32;6.00;;;4.20;;
4323;SDS011;2175;51.018;6.994;2023-04-24T06:34:57;5.27;;;3.80;;
4323;SDS011;2175;51.018;6.994;2023-04-24T06:37:23;6.53;;;3.27;;
4323;SDS011;2175;51.018;6.994;2023-04-24T06:39:49;5.67;;;3.87;;
4323;SDS011;2175;51.018;6.994;2023-04-24T06:42:14;4.20;;;2.67;;
4323;SDS011;2175;51.018;6.994;2023-04-24T06:44:40;7.20;;;3.03;;
4323;SDS011;2175;51.018;6.994;2023-04-24T06:47:09;7.07;;;2.90;;
4323;SDS011;2175;51.018;6.994;2023-04-24T06:49:36;3.20;;;2.77;;
4323;SDS011;2175;51.018;6.994;2023-04-24T06:52:02;3.47;;;2.93;;
4323;SDS011;2175;51.018;6.994;2023-04-24T06:54:28;4.00;;;2.90;;
4323;SDS011;2175;51.018;6.994;2023-04-24T06:56:54;6.50;;;2.97;;
4323;SDS011;2175;51.018;6.994;2023-04-24T06:59:20;3.50;;;2.60;;
4323;SDS011;2175;51.018;6.994;2023-04-24T07:01:46;4.33;;;2.47;;
4323;SDS011;2175;51.018;6.994;2023-04-24T07:04:11;9.70;;;2.77;;
4323;SDS011;2175;51.018;6.994;2023-04-24T07:06:38;3.80;;;2.63;;
4323;SDS011;2175;51.018;6.994;2023-04-24T07:09:04;3.37;;;2.53;;
4323;SDS011;2175;51.018;6.994;2023-04-24T07:11:29;5.20;;;2.90;;
4323;SDS011;2175;51.018;6.994;2023-04-24T07:13:55;4.37;;;2.50;;
4323;SDS011;2175;51.018;6.994;2023-04-24T07:16:21;3.90;;;2.73;;
4323;SDS011;2175;51.018;6.994;2023-04-24T07:18:46;3.40;;;2.47;;
4323;SDS011;2175;51.018;6.994;2023-04-24T07:21:12;3.73;;;2.60;;
4323;SDS011;2175;51.018;6.994;2023-04-24T07:23:38;4.47;;;2.90;;
4323;SDS011;2175;51.018;6.994;2023-04-24T07:26:03;5.73;;;3.10;;
4323;SDS011;2175;51.018;6.994;2023-04-24T07:28:30;9.53;;;3.30;;
4323;SDS011;2175;51.018;6.994;2023-04-24T07:30:56;4.77;;;2.80;;
4323;SDS011;2175;51.018;6.994;2023-04-24T07:33:23;5.13;;;3.33;;
4323;SDS011;2175;51.018;6.994;2023-04-24T07:35:49;5.07;;;3.70;;
4323;SDS011;2175;51.018;6.994;2023-04-24T07:38:15;4.93;;;3.50;;
4323;SDS011;2175;51.018;6.994;2023-04-24T07:40:40;6.03;;;3.70;;
4323;SDS011;2175;51.018;6.994;2023-04-24T07:43:06;4.33;;;2.77;;
4323;SDS011;2175;51.018;6.994;2023-04-24T07:45:31;5.00;;;2.70;;
4323;SDS011;2175;51.018;6.994;2023-04-24T07:48:01;5.83;;;2.40;;
4323;SDS011;2175;51.018;6.994;2023-04-24T07:50:26;7.87;;;2.80;;
4323;SDS011;2175;51.018;6.994;2023-04-24T07:52:52;3.90;;;2.57;;
4323;SDS011;2175;51.018;6.994;2023-04-24T07:55:17;5.17;;;2.93;;
4323;SDS011;2175;51.018;6.994;2023-04-24T07:57:43;4.10;;;2.30;;
4323;SDS011;2175;51.018;6.994;2023-04-24T08:00:09;5.73;;;2.47;;
4323;SDS011;2175;51.018;6.994;2023-04-24T08:02:35;4.77;;;2.47;;
4323;SDS011;2175;51.018;6.994;2023-04-24T08:05:01;5.70;;;2.50;;
4323;SDS011;2175;51.018;6.994;2023-04-24T08:07:28;4.67;;;2.40;;
4323;SDS011;2175;51.018;6.994;2023-04-24T08:09:54;4.00;;;2.27;;
4323;SDS011;2175;51.018;6.994;2023-04-24T08:12:20;4.83;;;2.07;;
4323;SDS011;2175;51.018;6.994;2023-04-24T08:14:45;5.13;;;1.97;;
4323;SDS011;2175;51.018;6.994;2023-04-24T08:17:11;4.53;;;2.63;;
4323;SDS011;2175;51.018;6.994;2023-04-24T08:19:36;5.37;;;2.17;;
4323;SDS011;2175;51.018;6.994;2023-04-24T08:22:02;5.77;;;2.70;;
4323;SDS011;2175;51.018;6.994;2023-04-24T08:24:29;5.70;;;2.67;;
4323;SDS011;2175;51.018;6.994;2023-04-24T08:26:54;5.63;;;2.43;;
4323;SDS011;2175;51.018;6.994;2023-04-24T08:29:22;2.93;;;2.50;;
4323;SDS011;2175;51.018;6.994;2023-04-24T08:31:48;3.03;;;2.20;;
4323;SDS011;2175;51.018;6.994;2023-04-24T08:34:14;3.07;;;2.13;;
4323;SDS011;2175;51.018;6.994;2023-04-24T08:36:39;7.33;;;2.43;;
4323;SDS011;2175;51.018;6.994;2023-04-24T08:39:05;4.83;;;2.13;;
4323;SDS011;2175;51.018;6.994;2023-04-24T08:41:31;4.40;;;2.53;;
4323;SDS011;2175;51.018;6.994;2023-04-24T08:44:03;3.90;;;2.53;;
4323;SDS011;2175;51.018;6.994;2023-04-24T08:46:32;6.03;;;3.17;;
4323;SDS011;2175;51.018;6.994;2023-04-24T08:49:07;6.27;;;2.97;;
4323;SDS011;2175;51.018;6.994;2023-04-24T08:51:38;4.77;;;3.10;;
4323;SDS011;2175;51.018;6.994;2023-04-24T08:54:21;4.70;;;3.27;;
4323;SDS011;2175;51.018;6.994;2023-04-24T08:56:50;4.37;;;3.10;;
4323;SDS011;2175;51.018;6.994;2023-04-24T08:59:29;5.10;;;3.70;;
4323;SDS011;2175;51.018;6.994;2023-04-24T09:01:59;6.40;;;3.60;;
4323;SDS011;2175;51.018;6.994;2023-04-24T09:04:28;6.83;;;4.50;;
4323;SDS011;2175;51.018;6.994;2023-04-24T09:10:26;7.43;;;4.53;;
4323;SDS011;2175;51.018;6.994;2023-04-24T09:12:55;6.47;;;4.80;;
4323;SDS011;2175;51.018;6.994;2023-04-24T09:15:23;7.20;;;4.57;;
4323;SDS011;2175;51.018;6.994;2023-04-24T09:17:49;10.10;;;5.30;;
4323;SDS011;2175;51.018;6.994;2023-04-24T09:20:15;14.43;;;5.70;;
4323;SDS011;2175;51.018;6.994;2023-04-24T09:22:41;8.67;;;5.20;;
4323;SDS011;2175;51.018;6.994;2023-04-24T09:25:08;9.10;;;5.50;;
4323;SDS011;2175;51.018;6.994;2023-04-24T09:27:38;8.13;;;5.33;;
4323;SDS011;2175;51.018;6.994;2023-04-24T09:30:10;9.23;;;5.80;;
4323;SDS011;2175;51.018;6.994;2023-04-24T09:32:36;9.20;;;6.37;;
4323;SDS011;2175;51.018;6.994;2023-04-24T09:35:06;13.17;;;6.40;;
4323;SDS011;2175;51.018;6.994;2023-04-24T09:37:35;9.90;;;6.30;;
4323;SDS011;2175;51.018;6.994;2023-04-24T09:42:33;11.20;;;6.77;;
4323;SDS011;2175;51.018;6.994;2023-04-24T09:44:59;10.67;;;6.27;;
4323;SDS011;2175;51.018;6.994;2023-04-24T09:47:25;11.30;;;5.87;;
4323;SDS011;2175;51.018;6.994;2023-04-24T09:49:50;8.63;;;6.30;;
4323;SDS011;2175;51.018;6.994;2023-04-24T09:52:22;14.37;;;8.80;;
4323;SDS011;2175;51.018;6.994;2023-04-24T09:54:53;9.90;;;6.47;;
4323;SDS011;2175;51.018;6.994;2023-04-24T09:57:19;12.43;;;8.80;;
4323;SDS011;2175;51.018;6.994;2023-04-24T09:59:45;20.93;;;7.40;;
4323;SDS011;2175;51.018;6.994;2023-04-24T10:02:18;12.97;;;8.00;;
4323;SDS011;2175;51.018;6.994;2023-04-24T10:04:53;11.03;;;7.00;;
4323;SDS011;2175;51.018;6.994;2023-04-24T10:07:21;15.33;;;7.47;;
4323;SDS011;2175;51.018;6.994;2023-04-24T10:09:46;10.47;;;6.67;;
4323;SDS011;2175;51.018;6.994;2023-04-24T10:12:12;12.20;;;7.27;;
4323;SDS011;2175;51.018;6.994;2023-04-24T10:14:39;13.73;;;8.33;;
4323;SDS011;2175;51.018;6.994;2023-04-24T10:17:05;13.53;;;8.43;;
4323;SDS011;2175;51.018;6.994;2023-04-24T10:19:31;13.97;;;8.23;;
4323;SDS011;2175;51.018;6.994;2023-04-24T10:21:58;10.50;;;7.10;;
4323;SDS011;2175;51.018;6.994;2023-04-24T10:24:25;15.40;;;8.57;;
4323;SDS011;2175;51.018;6.994;2023-04-24T10:26:51;11.80;;;7.57;;
4323;SDS011;2175;51.018;6.994;2023-04-24T10:29:18;14.53;;;7.40;;
4323;SDS011;2175;51.018;6.994;2023-04-24T10:31:44;15.17;;;8.00;;
4323;SDS011;2175;51.018;6.994;2023-04-24T10:34:11;13.40;;;7.20;;
4323;SDS011;2175;51.018;6.994;2023-04-24T10:36:40;15.50;;;6.67;;
4323;SDS011;2175;51.018;6.994;2023-04-24T10:39:11;15.20;;;6.77;;
4323;SDS011;2175;51.018;6.994;2023-04-24T10:41:38;18.80;;;7.60;;
4323;SDS011;2175;51.018;6.994;2023-04-24T10:44:04;15.37;;;7.30;;
4323;SDS011;2175;51.018;6.994;2023-04-24T10:46:30;12.27;;;6.90;;
4323;SDS011;2175;51.018;6.994;2023-04-24T10:48:55;14.20;;;6.77;;
4323;SDS011;2175;51.018;6.994;2023-04-24T10:51:23;17.10;;;7.60;;
4323;SDS011;2175;51.018;6.994;2023-04-24T10:53:49;17.90;;;7.67;;
4323;SDS011;2175;51.018;6.994;2023-04-24T10:56:16;10.20;;;5.67;;
4323;SDS011;2175;51.018;6.994;2023-04-24T10:58:43;12.30;;;4.77;;
4323;SDS011;2175;51.018;6.994;2023-04-24T11:01:23;10.63;;;4.80;;
4323;SDS011;2175;51.018;6.994;2023-04-24T11:03:56;14.33;;;6.30;;
4323;SDS011;2175;51.018;6.994;2023-04-24T11:09:06;11.47;;;5.63;;
4323;SDS011;2175;51.018;6.994;2023-04-24T11:11:34;12.13;;;5.60;;
4323;SDS011;2175;51.018;6.994;2023-04-24T11:14:01;12.90;;;5.10;;
4323;SDS011;2175;51.018;6.994;2023-04-24T11:16:29;12.43;;;5.47;;
4323;SDS011;2175;51.018;6.994;2023-04-24T11:19:10;12.97;;;4.73;;
4323;SDS011;2175;51.018;6.994;2023-04-24T11:21:57;9.60;;;4.47;;
4323;SDS011;2175;51.018;6.994;2023-04-24T11:27:15;12.07;;;4.97;;
4323;SDS011;2175;51.018;6.994;2023-04-24T11:29:48;12.83;;;5.13;;
4323;SDS011;2175;51.018;6.994;2023-04-24T11:32:29;16.10;;;5.77;;
4323;SDS011;2175;51.018;6.994;2023-04-24T11:34:57;13.43;;;5.03;;
4323;SDS011;2175;51.018;6.994;2023-04-24T11:37:40;19.30;;;4.80;;
4323;SDS011;2175;51.018;6.994;2023-04-24T11:40:11;14.30;;;5.13;;
4323;SDS011;2175;51.018;6.994;2023-04-24T11:42:47;13.73;;;5.03;;
4323;SDS011;2175;51.018;6.994;2023-04-24T11:45:17;14.07;;;5.07;;
4323;SDS011;2175;51.018;6.994;2023-04-24T11:47:47;19.93;;;6.63;;
4323;SDS011;2175;51.018;6.994;2023-04-24T11:50:14;15.07;;;5.80;;
4323;SDS011;2175;51.018;6.994;2023-04-24T11:52:40;20.93;;;5.53;;
4323;SDS011;2175;51.018;6.994;2023-04-24T11:55:12;17.57;;;5.47;;
4323;SDS011;2175;51.018;6.994;2023-04-24T11:57:52;18.53;;;6.70;;
4323;SDS011;2175;51.018;6.994;2023-04-24T12:02:51;14.13;;;4.93;;
4323;SDS011;2175;51.018;6.994;2023-04-24T12:05:27;17.03;;;6.10;;
4323;SDS011;2175;51.018;6.994;2023-04-24T12:07:56;15.00;;;6.30;;
4323;SDS011;2175;51.018;6.994;2023-04-24T12:10:21;15.77;;;5.80;;
4323;SDS011;2175;51.018;6.994;2023-04-24T12:12:52;12.27;;;5.20;;
4323;SDS011;2175;51.018;6.994;2023-04-24T12:15:19;14.97;;;5.87;;
4323;SDS011;2175;51.018;6.994;2023-04-24T12:17:45;14.20;;;5.40;;
4323;SDS011;2175;51.018;6.994;2023-04-24T12:20:11;14.30;;;5.60;;
4323;SDS011;2175;51.018;6.994;2023-04-24T12:25:13;18.23;;;8.60;;
4323;SDS011;2175;51.018;6.994;2023-04-24T12:27:43;17.73;;;6.70;;
4323;SDS011;2175;51.018;6.994;2023-04-24T12:30:11;16.33;;;6.23;;
4323;SDS011;2175;51.018;6.994;2023-04-24T12:32:46;13.00;;;6.03;;
4323;SDS011;2175;51.018;6.994;2023-04-24T12:35:12;14.17;;;5.63;;
4323;SDS011;2175;51.018;6.994;2023-04-24T12:37:41;14.27;;;6.00;;
4323;SDS011;2175;51.018;6.994;2023-04-24T12:40:08;15.67;;;5.93;;
4323;SDS011;2175;51.018;6.994;2023-04-24T12:42:36;14.60;;;5.37;;
4323;SDS011;2175;51.018;6.994;2023-04-24T12:45:08;19.20;;;5.93;;
4323;SDS011;2175;51.018;6.994;2023-04-24T12:47:34;26.40;;;6.97;;
4323;SDS011;2175;51.018;6.994;2023-04-24T12:50:00;11.50;;;5.30;;
4323;SDS011;2175;51.018;6.994;2023-04-24T12:52:27;12.87;;;4.80;;
4323;SDS011;2175;51.018;6.994;2023-04-24T12:54:56;15.00;;;5.80;;
4323;SDS011;2175;51.018;6.994;2023-04-24T12:57:23;14.73;;;5.67;;
4323;SDS011;2175;51.018;6.994;2023-04-24T12:59:49;12.80;;;5.03;;
4323;SDS011;2175;51.018;6.994;2023-04-24T13:02:16;10.13;;;4.47;;
4323;SDS011;2175;51.018;6.994;2023-04-24T13:04:46;16.13;;;5.20;;
4323;SDS011;2175;51.018;6.994;2023-04-24T13:07:12;11.60;;;4.77;;
4323;SDS011;2175;51.018;6.994;2023-04-24T13:09:39;15.13;;;5.40;;
4323;SDS011;2175;51.018;6.994;2023-04-24T13:12:05;23.43;;;4.90;;
4323;SDS011;2175;51.018;6.994;2023-04-24T13:14:31;9.60;;;4.50;;
4323;SDS011;2175;51.018;6.994;2023-04-24T13:16:57;17.40;;;4.90;;
4323;SDS011;2175;51.018;6.994;2023-04-24T13:19:26;14.87;;;5.30;;
4323;SDS011;2175;51.018;6.994;2023-04-24T13:21:53;12.93;;;5.10;;
4323;SDS011;2175;51.018;6.994;2023-04-24T13:24:21;12.00;;;5.50;;
4323;SDS011;2175;51.018;6.994;2023-04-24T13:26:49;7.90;;;4.90;;
4323;SDS011;2175;51.018;6.994;2023-04-24T13:29:15;15.90;;;5.10;;
4323;SDS011;2175;51.018;6.994;2023-04-24T13:31:41;16.87;;;4.90;;
4323;SDS011;2175;51.018;6.994;2023-04-24T13:34:07;8.40;;;4.27;;
4323;SDS011;2175;51.018;6.994;2023-04-24T13:36:33;9.10;;;4.10;;
4323;SDS011;2175;51.018;6.994;2023-04-24T13:38:58;11.80;;;4.40;;
4323;SDS011;2175;51.018;6.994;2023-04-24T13:41:24;11.60;;;4.90;;
4323;SDS011;2175;51.018;6.994;2023-04-24T13:43:49;15.33;;;4.73;;
4323;SDS011;2175;51.018;6.994;2023-04-24T13:46:15;11.60;;;4.97;;
4323;SDS011;2175;51.018;6.994;2023-04-24T13:48:41;12.17;;;5.33;;
4323;SDS011;2175;51.018;6.994;2023-04-24T13:51:06;10.70;;;4.83;;
4323;SDS011;2175;51.018;6.994;2023-04-24T13:53:32;12.83;;;4.10;;
4323;SDS011;2175;51.018;6.994;2023-04-24T13:56:01;9.60;;;4.13;;
4323;SDS011;2175;51.018;6.994;2023-04-24T13:58:27;9.93;;;4.47;;
4323;SDS011;2175;51.018;6.994;2023-04-24T14:00:52;13.17;;;4.30;;
4323;SDS011;2175;51.018;6.994;2023-04-24T14:03:18;12.00;;;4.47;;
4323;SDS011;2175;51.018;6.994;2023-04-24T14:05:43;11.80;;;5.03;;
4323;SDS011;2175;51.018;6.994;2023-04-24T14:08:09;8.70;;;5.10;;
4323;SDS011;2175;51.018;6.994;2023-04-24T14:10:35;13.87;;;5.63;;
4323;SDS011;2175;51.018;6.994;2023-04-24T14:13:00;10.20;;;5.00;;
4323;SDS011;2175;51.018;6.994;2023-04-24T14:15:26;10.83;;;5.13;;
4323;SDS011;2175;51.018;6.994;2023-04-24T14:17:52;15.33;;;5.97;;
4323;SDS011;2175;51.018;6.994;2023-04-24T14:20:18;10.53;;;5.80;;
4323;SDS011;2175;51.018;6.994;2023-04-24T14:22:44;10.93;;;5.40;;
4323;SDS011;2175;51.018;6.994;2023-04-24T14:25:09;11.77;;;5.73;;
4323;SDS011;2175;51.018;6.994;2023-04-24T14:27:35;9.30;;;4.93;;
4323;SDS011;2175;51.018;6.994;2023-04-24T14:30:01;11.93;;;5.63;;
4323;SDS011;2175;51.018;6.994;2023-04-24T14:32:26;13.20;;;6.67;;
4323;SDS011;2175;51.018;6.994;2023-04-24T14:34:53;13.07;;;5.10;;
4323;SDS011;2175;51.018;6.994;2023-04-24T14:37:18;10.93;;;5.50;;
4323;SDS011;2175;51.018;6.994;2023-04-24T14:39:44;12.73;;;5.60;;
4323;SDS011;2175;51.018;6.994;2023-04-24T14:42:10;7.70;;;4.33;;
4323;SDS011;2175;51.018;6.994;2023-04-24T14:44:36;10.57;;;4.80;;
4323;SDS011;2175;51.018;6.994;2023-04-24T14:47:01;7.23;;;4.40;;
4323;SDS011;2175;51.018;6.994;2023-04-24T14:49:27;14.00;;;5.20;;
4323;SDS011;2175;51.018;6.994;2023-04-24T14:51:52;15.13;;;5.60;;
4323;SDS011;2175;51.018;6.994;2023-04-24T14:54:18;10.13;;;4.87;;
4323;SDS011;2175;51.018;6.994;2023-04-24T14:56:44;10.23;;;4.10;;
4323;SDS011;2175;51.018;6.994;2023-04-24T14:59:10;14.07;;;5.33;;
4323;SDS011;2175;51.018;6.994;2023-04-24T15:01:35;13.17;;;4.40;;
4323;SDS011;2175;51.018;6.994;2023-04-24T15:04:01;10.07;;;4.50;;
4323;SDS011;2175;51.018;6.994;2023-04-24T15:06:27;7.47;;;3.20;;
4323;SDS011;2175;51.018;6.994;2023-04-24T15:08:56;7.70;;;2.90;;
4323;SDS011;2175;51.018;6.994;2023-04-24T15:11:21;10.70;;;3.77;;
4323;SDS011;2175;51.018;6.994;2023-04-24T15:13:47;11.33;;;3.53;;
4323;SDS011;2175;51.018;6.994;2023-04-24T15:16:13;8.17;;;3.77;;
4323;SDS011;2175;51.018;6.994;2023-04-24T15:18:38;9.73;;;3.80;;
4323;SDS011;2175;51.018;6.994;2023-04-24T15:21:04;5.80;;;3.20;;
4323;SDS011;2175;51.018;6.994;2023-04-24T15:23:30;17.40;;;4.07;;
4323;SDS011;2175;51.018;6.994;2023-04-24T15:25:56;6.00;;;3.27;;
4323;SDS011;2175;51.018;6.994;2023-04-24T15:28:22;13.57;;;3.90;;
4323;SDS011;2175;51.018;6.994;2023-04-24T15:30:49;6.20;;;3.50;;